createdAt,value
2022-12-23T00:00:38.234Z,1002
2022-12-23T00:04:36.317Z,1001.86
2022-12-23T00:08:35.777Z,1002.01
2022-12-23T00:12:36.302Z,1002.01
2022-12-23T00:16:36.416Z,1002.08
2022-12-23T00:20:35.812Z,1002
2022-12-23T00:24:35.185Z,1002.1
2022-12-23T00:28:35.843Z,1002.18
2022-12-23T00:32:35.724Z,1002.23
2022-12-23T00:36:35.896Z,1002.21
2022-12-23T00:40:40.833Z,1002.14
2022-12-23T00:44:35.183Z,1002.26
2022-12-23T00:48:35.833Z,1002.18
2022-12-23T00:52:35.765Z,1002.25
2022-12-23T00:56:35.921Z,1002.34
2022-12-23T01:00:38.872Z,1002.3
2022-12-23T01:04:35.604Z,1002.32
2022-12-23T01:08:35.325Z,1002.32
2022-12-23T01:12:35.330Z,1002.34
2022-12-23T01:16:40.644Z,1002.36
2022-12-23T01:20:35.555Z,1002.43
2022-12-23T01:24:35.145Z,1002.37
2022-12-23T01:28:36.131Z,1002.49
2022-12-23T01:32:36.087Z,1002.6
2022-12-23T01:36:35.762Z,1002.58
2022-12-23T01:40:35.523Z,1002.79
2022-12-23T01:44:35.170Z,1002.84
2022-12-23T01:48:35.897Z,1002.93
2022-12-23T01:52:35.672Z,1002.88
2022-12-23T01:56:35.390Z,1002.9
2022-12-23T02:00:41.248Z,1002.98
2022-12-23T02:04:35.979Z,1003.08
2022-12-23T02:08:35.865Z,1003.05
2022-12-23T02:12:35.586Z,1003.31
2022-12-23T02:16:35.323Z,1003.31
2022-12-23T02:20:35.924Z,1003.34
2022-12-23T02:24:35.619Z,1003.25
2022-12-23T02:28:35.530Z,1003.27
2022-12-23T02:32:35.295Z,1003.42
2022-12-23T02:36:35.938Z,1003.38
2022-12-23T02:40:35.783Z,1003.55
2022-12-23T02:44:35.490Z,1003.62
2022-12-23T02:48:35.998Z,1003.59
2022-12-23T02:52:35.930Z,1003.62
2022-12-23T02:56:35.379Z,1003.63
2022-12-23T03:00:36.750Z,1003.73
2022-12-23T03:04:35.614Z,1003.61
2022-12-23T03:08:35.997Z,1003.6
2022-12-23T03:12:35.559Z,1003.42
2022-12-23T03:16:35.544Z,1003.5
2022-12-23T03:20:36.065Z,1003.35
2022-12-23T03:24:35.576Z,1003.48
2022-12-23T03:28:35.282Z,1003.49
2022-12-23T03:32:35.085Z,1003.53
2022-12-23T03:36:35.781Z,1003.53
2022-12-23T03:40:35.472Z,1003.58
2022-12-23T03:44:35.182Z,1003.73
2022-12-23T03:48:35.779Z,1003.74
2022-12-23T03:52:43.931Z,1003.83
2022-12-23T03:56:35.406Z,1003.72
2022-12-23T04:00:39.038Z,1003.82
2022-12-23T04:04:36.080Z,1003.92
2022-12-23T04:08:35.249Z,1003.9
2022-12-23T04:12:36.077Z,1003.84
2022-12-23T04:16:36.049Z,1003.83
2022-12-23T04:20:35.296Z,1003.91
2022-12-23T04:24:35.939Z,1003.85
2022-12-23T04:28:35.720Z,1003.91
2022-12-23T04:32:35.582Z,1003.86
2022-12-23T04:36:35.228Z,1003.91
2022-12-23T04:40:35.172Z,1003.86
2022-12-23T04:44:35.975Z,1003.7
2022-12-23T04:48:35.341Z,1003.72
2022-12-23T04:52:35.897Z,1003.71
2022-12-23T04:56:35.484Z,1003.78
2022-12-23T05:00:46.856Z,1003.78
2022-12-23T05:04:35.857Z,1003.82
2022-12-23T05:08:35.600Z,1003.83
2022-12-23T05:12:35.358Z,1003.85
2022-12-23T05:16:35.755Z,1004.01
2022-12-23T05:20:35.975Z,1004.07
2022-12-23T05:24:35.807Z,1004.06
2022-12-23T05:28:35.462Z,1004.2
2022-12-23T05:32:35.517Z,1004.15
2022-12-23T05:36:35.019Z,1004.17
2022-12-23T05:40:44.005Z,1004.04
2022-12-23T05:44:35.597Z,1004.05
2022-12-23T05:48:35.335Z,1004.07
2022-12-23T05:52:36.397Z,1004.02
2022-12-23T05:56:35.740Z,1004
2022-12-23T06:00:40.534Z,1003.9
2022-12-23T06:04:35.774Z,1003.76
2022-12-23T06:08:35.919Z,1003.62
2022-12-23T06:12:35.858Z,1003.66
2022-12-23T06:16:35.893Z,1003.8
2022-12-23T06:20:43.593Z,1003.8
2022-12-23T06:24:35.883Z,1003.87
2022-12-23T06:28:35.414Z,1003.93
2022-12-23T06:32:38.884Z,1004
2022-12-23T06:36:35.762Z,1003.93
2022-12-23T06:40:35.433Z,1003.96
2022-12-23T06:44:35.229Z,1003.98
2022-12-23T06:48:36.019Z,1004.02
2022-12-23T06:52:35.791Z,1003.98
2022-12-23T06:56:35.312Z,1004.08
2022-12-23T07:00:38.319Z,1004.12
2022-12-23T07:04:35.218Z,1004.02
2022-12-23T07:08:35.115Z,1004.16
2022-12-23T07:12:35.715Z,1004.28
2022-12-23T07:16:35.382Z,1004.24
2022-12-23T07:20:35.816Z,1004.17
2022-12-23T07:24:35.424Z,1004.16
2022-12-23T07:28:35.923Z,1004.24
2022-12-23T07:32:35.960Z,1004.08
2022-12-23T07:36:35.309Z,1003.99
2022-12-23T07:40:42.579Z,1003.9
2022-12-23T07:44:35.927Z,1003.93
2022-12-23T07:48:35.622Z,1003.78
2022-12-23T07:52:35.211Z,1003.89
2022-12-23T07:56:35.729Z,1003.77
2022-12-23T08:00:38.127Z,1003.84
2022-12-23T08:04:40.978Z,1003.8
2022-12-23T08:08:35.601Z,1003.77
2022-12-23T08:12:35.060Z,1003.75
2022-12-23T08:16:43.032Z,1003.6
2022-12-23T08:20:35.156Z,1003.57
2022-12-23T08:24:36.139Z,1003.32
2022-12-23T08:28:35.466Z,1003.55
2022-12-23T08:32:35.180Z,1003.5
2022-12-23T08:36:43.265Z,1003.39
2022-12-23T08:40:35.626Z,1003.4
2022-12-23T08:44:36.089Z,1003.27
2022-12-23T08:48:35.620Z,1003.24
2022-12-23T08:52:35.566Z,1003.24
2022-12-23T08:56:35.182Z,1003.24
2022-12-23T09:00:40.733Z,1003.19
2022-12-23T09:04:35.589Z,1003.34
2022-12-23T09:08:36.037Z,1003.23
2022-12-23T09:12:35.588Z,1003.18
2022-12-23T09:16:35.923Z,1003.11
2022-12-23T09:20:35.858Z,1003.19
2022-12-23T09:24:35.718Z,1003.12
2022-12-23T09:28:35.371Z,1003.08
2022-12-23T09:32:35.922Z,1003.02
2022-12-23T09:36:35.584Z,1002.85
2022-12-23T09:40:35.984Z,1002.73
2022-12-23T09:44:35.763Z,1002.69
2022-12-23T09:48:35.496Z,1002.6
2022-12-23T09:52:35.223Z,1002.51
2022-12-23T09:56:35.771Z,1002.45
2022-12-23T10:00:38.603Z,1002.45
2022-12-23T10:04:35.908Z,1002.38
2022-12-23T10:08:35.224Z,1002.47
2022-12-23T10:12:41.007Z,1002.47
2022-12-23T10:16:35.693Z,1002.44
2022-12-23T10:20:36.139Z,1002.48
2022-12-23T10:24:35.804Z,1002.4
2022-12-23T10:28:41.239Z,1002.29
2022-12-23T10:32:36.011Z,1002.24
2022-12-23T10:36:36.391Z,1002.17
2022-12-23T10:40:35.805Z,1002.08
2022-12-23T10:44:35.416Z,1002.05
2022-12-23T10:48:37.052Z,1001.95
2022-12-23T10:52:35.932Z,1001.92
2022-12-23T10:56:35.549Z,1001.82
2022-12-23T11:00:38.974Z,1001.9
2022-12-23T11:04:35.532Z,1001.76
2022-12-23T11:08:35.311Z,1001.61
2022-12-23T11:12:40.414Z,1001.54
2022-12-23T11:16:36.052Z,1001.29
2022-12-23T11:20:35.437Z,1001.18
2022-12-23T11:24:41.233Z,1001.18
2022-12-23T11:28:35.787Z,1001.14
2022-12-23T11:32:35.831Z,1000.87
2022-12-23T11:36:35.311Z,1000.86
2022-12-23T11:40:36.146Z,1000.77
2022-12-23T11:44:35.695Z,1000.73
2022-12-23T11:48:35.379Z,1000.63
2022-12-23T11:52:36.068Z,1000.4
2022-12-23T11:56:36.134Z,1000.49
2022-12-23T12:00:39.131Z,1000.33
2022-12-23T12:04:36.063Z,1000.25
2022-12-23T12:08:35.504Z,1000
2022-12-23T12:12:35.913Z,999.79
2022-12-23T12:16:35.969Z,999.85
2022-12-23T12:20:35.706Z,999.81
2022-12-23T12:24:52.879Z,999.73
2022-12-23T12:28:35.810Z,999.7
2022-12-23T12:32:35.466Z,999.64
2022-12-23T12:36:39.837Z,999.56
2022-12-23T12:40:35.732Z,999.66
2022-12-23T12:44:35.383Z,999.48
2022-12-23T12:48:49.942Z,999.56
2022-12-23T12:52:35.573Z,999.46
2022-12-23T12:56:35.065Z,999.36
2022-12-23T13:00:40.963Z,999.31
2022-12-23T13:04:35.754Z,999.15
2022-12-23T13:08:35.559Z,999.12
2022-12-23T13:12:35.370Z,998.88
2022-12-23T13:16:35.157Z,998.71
2022-12-23T13:20:36.177Z,998.61
2022-12-23T13:24:38.372Z,998.53
2022-12-23T13:28:35.685Z,998.62
2022-12-23T13:32:35.234Z,998.49
2022-12-23T13:36:40.376Z,998.4
2022-12-23T13:40:37.460Z,998.35
2022-12-23T13:44:35.889Z,998.28
2022-12-23T13:48:39.382Z,998.28
2022-12-23T13:52:35.036Z,998.24
2022-12-23T13:56:35.871Z,998.19
2022-12-23T14:00:40.455Z,998.35
2022-12-23T14:04:35.607Z,998.29
2022-12-23T14:08:35.200Z,998.01
2022-12-23T14:12:38.628Z,998.06
2022-12-23T14:16:36.007Z,998.11
2022-12-23T14:20:36.057Z,998.08
2022-12-23T14:24:38.621Z,998.11
2022-12-23T14:28:35.678Z,998.18
2022-12-23T14:32:35.588Z,998.25
2022-12-23T14:36:35.606Z,998.28
2022-12-23T14:40:35.701Z,998.42
2022-12-23T14:44:35.190Z,998.43
2022-12-23T14:48:35.793Z,998.24
2022-12-23T14:52:39.320Z,998.23
2022-12-23T14:56:35.285Z,998.17
2022-12-23T15:00:36.917Z,997.98
2022-12-23T15:04:35.837Z,997.98
2022-12-23T15:08:36.040Z,998.08
2022-12-23T15:12:35.618Z,998.1
2022-12-23T15:16:36.495Z,998.11
2022-12-23T15:20:35.791Z,998.19
2022-12-23T15:24:35.072Z,998.11
2022-12-23T15:28:36.505Z,997.94
2022-12-23T15:32:35.575Z,998.02
2022-12-23T15:36:37.076Z,998.02
2022-12-23T15:40:49.248Z,998.05
2022-12-23T15:44:35.284Z,998.13
2022-12-23T15:48:35.850Z,998.2
2022-12-23T15:52:48.998Z,998.27
2022-12-23T15:56:35.986Z,998.32
2022-12-23T16:00:39.151Z,998.4
2022-12-23T16:04:35.851Z,998.48
2022-12-23T16:08:41.246Z,998.45
2022-12-23T16:12:35.739Z,998.56
2022-12-23T16:16:35.659Z,998.52
2022-12-23T16:20:36.046Z,998.37
2022-12-23T16:24:35.610Z,998.28
2022-12-23T16:28:35.866Z,998.36
2022-12-23T16:32:36.587Z,998.56
2022-12-23T16:36:36.371Z,998.33
2022-12-23T16:40:35.612Z,998.36
2022-12-23T16:44:35.354Z,998.42
2022-12-23T16:48:35.960Z,998.42
2022-12-23T16:52:35.383Z,998.44
2022-12-23T16:56:36.078Z,998.44
2022-12-23T17:00:38.938Z,998.58
2022-12-23T17:04:35.727Z,998.52
2022-12-23T17:08:35.194Z,998.58
2022-12-23T17:12:35.918Z,998.66
2022-12-23T17:16:35.653Z,998.67
2022-12-23T17:20:35.829Z,998.51
2022-12-23T17:24:35.582Z,998.59
2022-12-23T17:28:35.188Z,998.6
2022-12-23T17:32:35.491Z,998.64
2022-12-23T17:36:36.146Z,998.67
2022-12-23T17:40:35.833Z,998.55
2022-12-23T17:44:35.504Z,998.53
2022-12-23T17:48:44.000Z,998.6
2022-12-23T17:52:36.036Z,998.78
2022-12-23T17:56:35.843Z,998.68
2022-12-23T18:00:52.414Z,998.78
2022-12-23T18:04:35.572Z,998.76
2022-12-23T18:08:35.479Z,998.9
2022-12-23T18:12:36.714Z,998.91
2022-12-23T18:16:36.110Z,998.99
2022-12-23T18:20:35.832Z,998.98
2022-12-23T18:24:35.686Z,998.91
2022-12-23T18:28:35.099Z,999.04
2022-12-23T18:32:35.777Z,999.08
2022-12-23T18:36:35.696Z,999.11
2022-12-23T18:40:43.758Z,999.19
2022-12-23T18:44:36.003Z,999.15
2022-12-23T18:48:35.582Z,999.23
2022-12-23T18:52:35.405Z,999.24
2022-12-23T18:56:35.498Z,999.31
2022-12-23T19:00:39.105Z,999.21
2022-12-23T19:04:36.008Z,999.26
2022-12-23T19:08:38.864Z,999.33
2022-12-23T19:12:35.463Z,999.42
2022-12-23T19:16:35.554Z,999.48
2022-12-23T19:20:35.782Z,999.42
2022-12-23T19:24:35.469Z,999.41
2022-12-23T19:28:35.981Z,999.46
2022-12-23T19:32:35.503Z,999.49
2022-12-23T19:36:35.650Z,999.65
2022-12-23T19:40:35.878Z,999.8
2022-12-23T19:44:35.372Z,999.83
2022-12-23T19:48:35.229Z,999.86
2022-12-23T19:52:35.910Z,1000.1
2022-12-23T19:56:35.833Z,1000.14
2022-12-23T20:00:39.054Z,1000.14
2022-12-23T20:04:35.131Z,1000.17
2022-12-23T20:08:35.869Z,1000.36
2022-12-23T20:12:35.612Z,1000.29
2022-12-23T20:16:35.951Z,1000.47
2022-12-23T20:20:35.218Z,1000.5
2022-12-23T20:24:35.909Z,1000.59
2022-12-23T20:28:35.637Z,1000.62
2022-12-23T20:32:35.439Z,1000.63
2022-12-23T20:36:35.511Z,1000.71
2022-12-23T20:40:36.131Z,1000.86
2022-12-23T20:45:08.673Z,1001
2022-12-23T20:48:43.156Z,1000.93
2022-12-23T20:52:35.070Z,1000.99
2022-12-23T20:56:35.601Z,1001.09
2022-12-23T21:00:39.624Z,1001.19
2022-12-23T21:04:35.517Z,1001.24
2022-12-23T21:08:36.096Z,1001.31
2022-12-23T21:12:35.609Z,1001.42
2022-12-23T21:16:35.795Z,1001.49
2022-12-23T21:20:41.842Z,1001.59
2022-12-23T21:24:35.693Z,1001.64
2022-12-23T21:28:35.205Z,1001.73
2022-12-23T21:32:35.878Z,1001.81
2022-12-23T21:36:42.832Z,1001.84
2022-12-23T21:40:36.114Z,1001.88
2022-12-23T21:44:35.858Z,1002.04
2022-12-23T21:48:35.504Z,1002.07
2022-12-23T21:52:35.303Z,1002.17
2022-12-23T21:56:35.900Z,1002.21
2022-12-23T22:00:38.307Z,1002.36
2022-12-23T22:04:35.965Z,1002.43
2022-12-23T22:08:35.696Z,1002.39
2022-12-23T22:12:35.578Z,1002.36
2022-12-23T22:16:35.672Z,1002.43
2022-12-23T22:20:39.760Z,1002.52
2022-12-23T22:24:35.768Z,1002.54
2022-12-23T22:28:35.584Z,1002.67
2022-12-23T22:32:40.611Z,1002.75
2022-12-23T22:36:36.376Z,1002.75
2022-12-23T22:40:35.737Z,1002.76
2022-12-23T22:44:35.939Z,1002.87
2022-12-23T22:48:35.275Z,1002.88
2022-12-23T22:52:35.899Z,1003.07
2022-12-23T22:56:35.484Z,1003.02
2022-12-23T23:00:46.620Z,1003.19
2022-12-23T23:04:35.201Z,1003.18
2022-12-23T23:08:35.187Z,1003.22
2022-12-23T23:12:35.981Z,1003.2
2022-12-23T23:16:35.888Z,1003.3
2022-12-23T23:20:36.138Z,1003.29
2022-12-23T23:24:42.597Z,1003.26
2022-12-23T23:28:35.412Z,1003.48
2022-12-23T23:32:35.730Z,1003.56
2022-12-23T23:36:36.182Z,1003.66
2022-12-23T23:40:35.768Z,1003.67
2022-12-23T23:44:35.577Z,1003.77
2022-12-23T23:48:35.494Z,1003.81
2022-12-23T23:52:35.603Z,1003.86
2022-12-23T23:56:38.567Z,1003.94
